createdAt,value
2022-10-22T00:00:22.521Z,15.62
2022-10-22T00:03:16.086Z,15.66
2022-10-22T00:06:38.677Z,15.68
2022-10-22T00:09:12.774Z,15.64
2022-10-22T00:11:49.326Z,15.49
2022-10-22T00:14:24.226Z,15.67
2022-10-22T00:17:21.318Z,15.76
2022-10-22T00:19:57.295Z,15.78
2022-10-22T00:22:37.843Z,15.78
2022-10-22T00:25:13.546Z,15.75
2022-10-22T00:27:46.389Z,15.73
2022-10-22T00:30:49.476Z,15.73
2022-10-22T00:34:18.462Z,15.71
2022-10-22T00:37:00.712Z,15.65
2022-10-22T00:40:01.322Z,15.62
2022-10-22T00:42:58.436Z,15.60
2022-10-22T00:45:34.473Z,15.57
2022-10-22T00:49:25.334Z,15.58
2022-10-22T00:52:46.240Z,15.54
2022-10-22T00:56:12.240Z,15.52
2022-10-22T01:01:48.036Z,15.43
2022-10-22T01:04:23.481Z,15.42
2022-10-22T01:07:05.390Z,15.40
2022-10-22T01:09:43.377Z,15.38
2022-10-22T01:16:30.765Z,15.05
2022-10-22T01:19:29.609Z,15.03
2022-10-22T01:22:29.536Z,14.98
2022-10-22T01:29:17.927Z,15.12
2022-10-22T01:32:00.538Z,15.11
2022-10-22T01:37:49.014Z,15.13
2022-10-22T01:40:28.638Z,15.08
2022-10-22T01:43:30.110Z,15.06
2022-10-22T01:46:11.493Z,15.08
2022-10-22T01:55:26.816Z,14.96
2022-10-22T01:58:17.502Z,14.95
2022-10-22T02:01:27.482Z,14.96
2022-10-22T02:04:36.813Z,14.91
2022-10-22T02:07:43.178Z,14.91
2022-10-22T02:10:25.843Z,14.91
2022-10-22T02:13:45.849Z,14.90
2022-10-22T02:23:36.841Z,14.94
2022-10-22T02:27:00.936Z,14.95
2022-10-22T02:30:13.063Z,14.95
2022-10-22T02:36:50.434Z,14.89
2022-10-22T02:39:34.507Z,14.88
2022-10-22T02:42:09.487Z,14.86
2022-10-22T02:45:17.814Z,14.86
2022-10-22T02:47:51.553Z,14.85
2022-10-22T02:50:30.180Z,14.84
2022-10-22T02:53:05.550Z,14.82
2022-10-22T02:56:06.672Z,14.79
2022-10-22T02:59:09.858Z,14.77
2022-10-22T03:02:56.791Z,14.72
2022-10-22T03:05:30.581Z,14.70
2022-10-22T03:08:51.398Z,14.68
2022-10-22T03:11:47.546Z,14.65
2022-10-22T03:17:50.565Z,14.62
2022-10-22T03:20:51.384Z,14.60
2022-10-22T03:23:28.228Z,14.54
2022-10-22T03:26:03.704Z,14.50
2022-10-22T03:28:39.632Z,14.49
2022-10-22T03:31:39.478Z,14.48
2022-10-22T03:35:04.620Z,14.50
2022-10-22T03:44:24.608Z,14.50
2022-10-22T03:47:27.703Z,14.48
2022-10-22T03:50:23.325Z,14.46
2022-10-22T03:53:48.235Z,14.46
2022-10-22T03:56:26.611Z,14.44
2022-10-22T03:59:06.366Z,14.41
2022-10-22T04:02:28.330Z,14.42
2022-10-22T04:05:29.166Z,14.37
2022-10-22T04:08:49.769Z,14.35
2022-10-22T04:12:10.648Z,14.30
2022-10-22T04:14:46.588Z,14.24
2022-10-22T04:17:22.594Z,14.20
2022-10-22T04:19:55.829Z,14.23
2022-10-22T04:22:32.598Z,14.26
2022-10-22T04:29:03.426Z,14.19
2022-10-22T04:31:40.542Z,14.18
2022-10-22T04:35:00.136Z,14.15
2022-10-22T04:37:37.016Z,14.06
2022-10-22T04:40:25.433Z,14.04
2022-10-22T04:43:50.299Z,14.00
2022-10-22T04:46:48.483Z,13.89
2022-10-22T04:49:45.889Z,13.79
2022-10-22T04:52:19.787Z,13.78
2022-10-22T04:55:18.831Z,13.76
2022-10-22T04:57:58.764Z,13.73
2022-10-22T05:00:34.276Z,13.71
2022-10-22T05:06:55.730Z,13.68
2022-10-22T05:09:56.773Z,13.70
2022-10-22T05:16:14.712Z,13.45
2022-10-22T05:18:51.739Z,13.44
2022-10-22T05:21:48.576Z,13.43
2022-10-22T05:24:26.456Z,13.44
2022-10-22T05:33:57.338Z,13.50
2022-10-22T05:36:33.102Z,13.50
2022-10-22T05:42:29.956Z,13.60
2022-10-22T05:45:33.126Z,13.73
2022-10-22T05:48:59.406Z,13.73
2022-10-22T05:51:37.013Z,13.89
2022-10-22T05:57:24.051Z,13.81
2022-10-22T05:59:59.044Z,13.90
2022-10-22T06:02:59.291Z,13.94
2022-10-22T06:05:33.593Z,14.00
2022-10-22T06:08:14.440Z,13.94
2022-10-22T06:10:57.382Z,13.98
2022-10-22T06:13:40.783Z,14.18
2022-10-22T06:19:58.510Z,14.18
2022-10-22T06:22:33.175Z,14.25
2022-10-22T06:28:38.775Z,14.48
2022-10-22T06:34:43.824Z,14.79
2022-10-22T06:37:18.662Z,14.99
2022-10-22T06:40:20.735Z,15.08
2022-10-22T06:46:29.183Z,15.38
2022-10-22T07:02:18.534Z,16.26
2022-10-22T07:05:19.801Z,16.45
2022-10-22T07:08:21.358Z,16.71
2022-10-22T07:11:26.072Z,16.89
2022-10-22T07:14:26.608Z,17.09
2022-10-22T07:17:24.887Z,17.28
2022-10-22T07:20:08.032Z,17.47
2022-10-22T07:22:43.314Z,17.61
2022-10-22T07:25:23.482Z,17.73
2022-10-22T07:32:33.129Z,17.84
2022-10-22T07:35:14.278Z,17.99
2022-10-22T07:38:40.727Z,18.09
2022-10-22T07:41:45.743Z,18.18
2022-10-22T07:44:47.315Z,18.17
2022-10-22T07:47:24.989Z,18.20
2022-10-22T07:50:05.244Z,18.47
2022-10-22T07:53:03.662Z,18.62
2022-10-22T07:55:41.738Z,18.73
2022-10-22T07:58:38.492Z,18.83
2022-10-22T08:01:45.653Z,18.86
2022-10-22T08:04:19.654Z,18.88
2022-10-22T08:06:52.778Z,18.96
2022-10-22T08:09:30.907Z,19.01
2022-10-22T08:12:08.989Z,19.07
2022-10-22T08:15:12.752Z,19.06
2022-10-22T08:18:10.802Z,19.05
2022-10-22T08:25:22.424Z,19.12
2022-10-22T08:28:21.346Z,19.14
2022-10-22T08:31:00.472Z,19.16
2022-10-22T08:34:21.647Z,19.16
2022-10-22T08:37:01.184Z,19.19
2022-10-22T08:39:42.056Z,19.26
2022-10-22T08:42:44.740Z,19.32
2022-10-22T08:45:43.614Z,19.35
2022-10-22T08:48:35.084Z,19.39
2022-10-22T08:54:31.581Z,19.43
2022-10-22T08:57:25.740Z,19.47
2022-10-22T09:00:15.674Z,19.50
2022-10-22T09:03:37.277Z,19.51
2022-10-22T09:06:39.890Z,19.53
2022-10-22T09:09:26.099Z,19.55
2022-10-22T09:12:03.108Z,19.56
2022-10-22T09:14:38.850Z,19.55
2022-10-22T09:17:18.197Z,19.61
2022-10-22T09:23:42.050Z,19.72
2022-10-22T09:26:40.055Z,19.76
2022-10-22T09:29:22.601Z,19.81
2022-10-22T09:31:57.616Z,19.86
2022-10-22T09:34:32.648Z,19.90
2022-10-22T09:43:17.726Z,19.76
2022-10-22T09:45:59.242Z,19.72
2022-10-22T09:52:03.638Z,19.85
2022-10-22T09:55:26.815Z,19.92
2022-10-22T09:58:05.020Z,19.99
2022-10-22T10:04:55.564Z,20.05
2022-10-22T10:07:36.975Z,19.94
2022-10-22T10:10:23.398Z,19.86
2022-10-22T10:14:04.480Z,19.71
2022-10-22T10:16:53.759Z,19.60
2022-10-22T10:19:46.837Z,19.58
2022-10-22T10:22:45.438Z,19.76
2022-10-22T10:26:07.008Z,19.79
2022-10-22T10:39:57.499Z,19.43
2022-10-22T10:42:59.052Z,19.32
2022-10-22T10:46:03.539Z,19.35
2022-10-22T10:48:54.189Z,19.31
2022-10-22T10:52:21.302Z,19.16
2022-10-22T10:55:06.291Z,19.00
2022-10-22T10:57:52.835Z,18.94
2022-10-22T11:00:31.259Z,19.01
2022-10-22T11:09:52.732Z,19.02
2022-10-22T11:12:32.889Z,19.01
2022-10-22T11:15:21.639Z,19.03
2022-10-22T11:17:57.413Z,19.07
2022-10-22T11:20:40.891Z,19.11
2022-10-22T11:23:45.502Z,19.13
2022-10-22T11:30:08.518Z,19.15
2022-10-22T11:36:14.689Z,19.03
2022-10-22T11:45:40.410Z,18.83
2022-10-22T11:48:43.819Z,18.87
2022-10-22T11:52:04.366Z,18.87
2022-10-22T11:58:53.991Z,18.82
2022-10-22T12:01:51.990Z,18.89
2022-10-22T12:08:01.557Z,18.96
2022-10-22T12:11:17.299Z,18.95
2022-10-22T12:14:30.634Z,19.00
2022-10-22T12:17:47.218Z,19.08
2022-10-22T12:20:47.502Z,19.13
2022-10-22T12:23:50.766Z,19.13
2022-10-22T12:26:50.216Z,19.15
2022-10-22T12:32:57.542Z,19.14
2022-10-22T12:35:40.340Z,19.07
2022-10-22T12:38:42.500Z,19.06
2022-10-22T12:44:40.032Z,18.88
2022-10-22T12:47:20.118Z,18.77
2022-10-22T12:54:23.947Z,18.69
2022-10-22T12:56:58.641Z,18.67
2022-10-22T13:02:37.998Z,18.65
2022-10-22T13:05:27.542Z,18.63
2022-10-22T13:08:11.926Z,18.57
2022-10-22T13:11:00.626Z,18.59
2022-10-22T13:13:48.494Z,18.53
2022-10-22T13:17:15.846Z,18.50
2022-10-22T13:20:06.246Z,18.52
2022-10-22T13:25:46.515Z,18.49
2022-10-22T13:28:30.187Z,18.44
2022-10-22T13:31:17.865Z,18.43
2022-10-22T13:34:00.052Z,18.39
2022-10-22T13:36:59.396Z,18.38
2022-10-22T13:39:33.831Z,18.37
2022-10-22T13:42:15.415Z,18.43
2022-10-22T13:44:51.646Z,18.45
2022-10-22T13:54:30.928Z,18.36
2022-10-22T13:57:33.358Z,18.28
2022-10-22T14:03:43.569Z,18.12
2022-10-22T14:06:43.114Z,18.03
2022-10-22T14:10:09.375Z,17.83
2022-10-22T14:12:46.479Z,17.70
2022-10-22T14:15:53.644Z,17.60
2022-10-22T14:18:35.444Z,17.65
2022-10-22T14:21:55.929Z,17.61
2022-10-22T14:24:54.901Z,17.54
2022-10-22T14:30:32.512Z,17.45
2022-10-22T14:33:20.107Z,17.42
2022-10-22T14:36:00.604Z,17.39
2022-10-22T14:38:42.305Z,17.38
2022-10-22T14:41:45.002Z,17.33
2022-10-22T14:44:46.066Z,17.31
2022-10-22T14:54:23.374Z,17.20
2022-10-22T14:57:05.276Z,17.16
2022-10-22T15:00:06.880Z,17.20
2022-10-22T15:02:43.325Z,17.21
2022-10-22T15:05:20.348Z,17.19
2022-10-22T15:08:18.590Z,17.15
2022-10-22T15:11:34.939Z,17.16
2022-10-22T15:14:33.834Z,17.12
2022-10-22T15:17:33.950Z,17.04
2022-10-22T15:20:16.996Z,17.01
2022-10-22T15:26:01.204Z,16.97
2022-10-22T15:32:01.652Z,16.99
2022-10-22T15:35:04.638Z,17.00
2022-10-22T15:37:43.368Z,16.95
2022-10-22T15:40:29.472Z,17.00
2022-10-22T15:47:26.729Z,17.04
2022-10-22T15:50:27.148Z,17.03
2022-10-22T15:53:32.099Z,16.98
2022-10-22T16:00:04.401Z,16.98
2022-10-22T16:03:17.397Z,17.00
2022-10-22T16:06:06.031Z,16.99
2022-10-22T16:09:58.284Z,16.96
2022-10-22T16:13:01.264Z,16.96
2022-10-22T16:15:45.642Z,16.95
2022-10-22T16:18:31.574Z,16.97
2022-10-22T16:22:00.678Z,16.99
2022-10-22T16:25:05.436Z,16.98
2022-10-22T16:31:17.902Z,16.94
2022-10-22T16:33:54.850Z,16.92
2022-10-22T16:36:37.640Z,16.91
2022-10-22T16:39:38.381Z,16.94
2022-10-22T16:42:22.889Z,16.96
2022-10-22T16:45:12.056Z,16.95
2022-10-22T16:48:18.457Z,16.94
2022-10-22T16:51:23.826Z,16.96
2022-10-22T16:54:29.399Z,16.94
2022-10-22T16:57:15.676Z,16.93
2022-10-22T16:59:57.068Z,16.87
2022-10-22T17:03:01.447Z,16.86
2022-10-22T17:06:07.593Z,16.85
2022-10-22T17:08:50.877Z,16.79
2022-10-22T17:12:17.069Z,16.75
2022-10-22T17:18:27.983Z,16.65
2022-10-22T17:21:10.111Z,16.67
2022-10-22T17:26:52.038Z,16.73
2022-10-22T17:29:53.653Z,16.79
2022-10-22T17:32:56.060Z,16.81
2022-10-22T17:35:35.079Z,16.76
2022-10-22T17:41:57.547Z,16.72
2022-10-22T17:44:58.486Z,16.75
2022-10-22T17:47:30.574Z,16.76
2022-10-22T17:57:04.062Z,16.84
2022-10-22T18:00:48.014Z,16.84
2022-10-22T18:04:14.563Z,16.82
2022-10-22T18:06:57.609Z,16.77
2022-10-22T18:09:33.359Z,16.75
2022-10-22T18:12:18.831Z,16.79
2022-10-22T18:18:22.456Z,16.78
2022-10-22T18:24:44.824Z,16.75
2022-10-22T18:27:26.145Z,16.77
2022-10-22T18:30:02.489Z,16.80
2022-10-22T18:36:23.412Z,16.82
2022-10-22T18:42:39.976Z,16.92
2022-10-22T18:45:13.279Z,16.91
2022-10-22T18:47:47.851Z,16.92
2022-10-22T18:50:49.384Z,16.90
2022-10-22T18:57:02.549Z,16.86
2022-10-22T18:59:44.552Z,16.86
2022-10-22T19:02:21.860Z,16.88
2022-10-22T19:05:04.249Z,16.91
2022-10-22T19:07:45.508Z,16.94
2022-10-22T19:10:28.503Z,16.96
2022-10-22T19:16:50.317Z,17.03
2022-10-22T19:19:30.514Z,17.03
2022-10-22T19:22:07.039Z,17.02
2022-10-22T19:25:09.734Z,17.03
2022-10-22T19:27:53.421Z,17.01
2022-10-22T19:30:29.845Z,17.03
2022-10-22T19:33:51.875Z,17.09
2022-10-22T19:36:29.742Z,17.12
2022-10-22T19:42:26.889Z,17.11
2022-10-22T19:45:26.145Z,17.13
2022-10-22T19:48:04.168Z,17.18
2022-10-22T19:50:36.855Z,17.24
2022-10-22T19:53:13.315Z,17.28
2022-10-22T19:55:50.684Z,17.32
2022-10-22T19:59:11.111Z,17.35
2022-10-22T20:02:09.666Z,17.34
2022-10-22T20:04:49.266Z,17.33
2022-10-22T20:07:26.986Z,17.34
2022-10-22T20:10:24.969Z,17.34
2022-10-22T20:12:59.419Z,17.34
2022-10-22T20:15:34.720Z,17.36
2022-10-22T20:18:11.912Z,17.37
2022-10-22T20:21:15.851Z,17.39
2022-10-22T20:23:52.766Z,17.41
2022-10-22T20:26:31.814Z,17.41
2022-10-22T20:29:10.561Z,17.46
2022-10-22T20:35:31.327Z,17.48
2022-10-22T20:41:44.921Z,17.43
2022-10-22T20:45:11.857Z,17.42
2022-10-22T20:48:02.001Z,17.42
2022-10-22T20:50:35.090Z,17.44
2022-10-22T20:53:11.399Z,17.46
2022-10-22T20:56:11.934Z,17.49
2022-10-22T20:59:15.506Z,17.51
2022-10-22T21:05:37.840Z,17.58
2022-10-22T21:08:18.269Z,17.62
2022-10-22T21:14:23.098Z,17.65
2022-10-22T21:17:01.729Z,17.65
2022-10-22T21:19:38.707Z,17.68
2022-10-22T21:22:40.186Z,17.69
2022-10-22T21:26:01.798Z,17.76
2022-10-22T21:28:38.657Z,17.77
2022-10-22T21:31:22.967Z,17.77
2022-10-22T21:33:59.122Z,17.80
2022-10-22T21:36:57.764Z,17.82
2022-10-22T21:39:33.294Z,17.82
2022-10-22T21:42:36.801Z,17.83
2022-10-22T21:45:40.340Z,17.86
2022-10-22T21:48:37.459Z,17.85
2022-10-22T21:58:01.261Z,17.92
2022-10-22T22:01:01.641Z,17.93
2022-10-22T22:03:34.503Z,17.91
2022-10-22T22:13:27.674Z,17.98
2022-10-22T22:16:32.116Z,18.01
2022-10-22T22:19:11.281Z,18.00
2022-10-22T22:25:18.554Z,18.08
2022-10-22T22:27:55.473Z,18.10
2022-10-22T22:30:28.100Z,18.11
2022-10-22T22:33:06.206Z,18.10
2022-10-22T22:35:42.004Z,18.10
2022-10-22T22:38:41.164Z,18.11
2022-10-22T22:42:03.420Z,18.16
2022-10-22T22:48:03.907Z,18.16
2022-10-22T22:51:03.940Z,18.16
2022-10-22T22:54:00.735Z,18.09
2022-10-22T22:59:58.292Z,18.15
2022-10-22T23:02:30.981Z,18.20
2022-10-22T23:05:32.835Z,18.07
2022-10-22T23:08:08.882Z,18.05
2022-10-22T23:11:05.706Z,18.18
2022-10-22T23:14:11.961Z,18.17
2022-10-22T23:17:11.963Z,18.19
2022-10-22T23:19:49.349Z,18.23
2022-10-22T23:22:49.479Z,18.25
2022-10-22T23:25:52.824Z,18.30
2022-10-22T23:35:30.522Z,18.25
2022-10-22T23:38:05.759Z,18.24
2022-10-22T23:41:04.446Z,18.23
2022-10-22T23:43:41.415Z,18.22
2022-10-22T23:46:18.948Z,18.23
2022-10-22T23:48:56.580Z,18.27
2022-10-22T23:51:32.621Z,18.30
2022-10-22T23:57:14.489Z,18.25
2022-10-22T23:59:57.934Z,18.18
